sensor_id;sensor_type;location;lat;lon;timestamp;P1;durP1;ratioP1;P2;durP2;ratioP2
33716;SDS011;20046;50.746;7.072;2023-07-31T00:00:14;7.80;;;3.70;;
33716;SDS011;20046;50.746;7.072;2023-07-31T00:02:39;7.43;;;3.47;;
33716;SDS011;20046;50.746;7.072;2023-07-31T00:05:06;13.82;;;4.65;;
33716;SDS011;20046;50.746;7.072;2023-07-31T00:07:33;15.20;;;3.53;;
33716;SDS011;20046;50.746;7.072;2023-07-31T00:09:58;10.55;;;3.75;;
33716;SDS011;20046;50.746;7.072;2023-07-31T00:12:24;11.18;;;4.28;;
33716;SDS011;20046;50.746;7.072;2023-07-31T00:14:49;8.13;;;3.95;;
33716;SDS011;20046;50.746;7.072;2023-07-31T00:17:16;7.57;;;3.53;;
33716;SDS011;20046;50.746;7.072;2023-07-31T00:19:42;13.95;;;4.03;;
33716;SDS011;20046;50.746;7.072;2023-07-31T00:22:07;11.40;;;3.70;;
33716;SDS011;20046;50.746;7.072;2023-07-31T00:24:33;7.70;;;3.38;;
33716;SDS011;20046;50.746;7.072;2023-07-31T00:26:58;11.63;;;3.80;;
33716;SDS011;20046;50.746;7.072;2023-07-31T00:29:24;8.07;;;3.75;;
33716;SDS011;20046;50.746;7.072;2023-07-31T00:31:50;6.78;;;3.15;;
33716;SDS011;20046;50.746;7.072;2023-07-31T00:34:15;8.05;;;3.08;;
33716;SDS011;20046;50.746;7.072;2023-07-31T00:36:41;8.38;;;3.55;;
33716;SDS011;20046;50.746;7.072;2023-07-31T00:39:06;9.70;;;3.35;;
33716;SDS011;20046;50.746;7.072;2023-07-31T00:41:32;5.18;;;2.40;;
33716;SDS011;20046;50.746;7.072;2023-07-31T00:43:57;8.98;;;3.00;;
33716;SDS011;20046;50.746;7.072;2023-07-31T00:46:23;6.40;;;3.47;;
33716;SDS011;20046;50.746;7.072;2023-07-31T00:48:49;5.40;;;2.72;;
33716;SDS011;20046;50.746;7.072;2023-07-31T00:51:14;6.60;;;2.63;;
33716;SDS011;20046;50.746;7.072;2023-07-31T00:53:41;5.75;;;2.47;;
33716;SDS011;20046;50.746;7.072;2023-07-31T00:56:07;4.80;;;2.90;;
33716;SDS011;20046;50.746;7.072;2023-07-31T00:58:33;10.30;;;3.15;;
33716;SDS011;20046;50.746;7.072;2023-07-31T01:00:59;5.60;;;2.60;;
33716;SDS011;20046;50.746;7.072;2023-07-31T01:03:25;7.07;;;3.00;;
33716;SDS011;20046;50.746;7.072;2023-07-31T01:06:01;5.47;;;3.22;;
33716;SDS011;20046;50.746;7.072;2023-07-31T01:09:05;7.03;;;2.78;;
33716;SDS011;20046;50.746;7.072;2023-07-31T01:11:33;7.88;;;2.72;;
33716;SDS011;20046;50.746;7.072;2023-07-31T01:14:03;4.32;;;2.45;;
33716;SDS011;20046;50.746;7.072;2023-07-31T01:16:28;6.28;;;2.50;;
33716;SDS011;20046;50.746;7.072;2023-07-31T01:18:54;5.45;;;2.85;;
33716;SDS011;20046;50.746;7.072;2023-07-31T01:26:44;6.00;;;3.28;;
33716;SDS011;20046;50.746;7.072;2023-07-31T01:29:47;6.47;;;3.05;;
33716;SDS011;20046;50.746;7.072;2023-07-31T01:32:16;5.72;;;2.80;;
33716;SDS011;20046;50.746;7.072;2023-07-31T01:34:44;8.98;;;3.10;;
33716;SDS011;20046;50.746;7.072;2023-07-31T01:37:11;7.78;;;2.75;;
33716;SDS011;20046;50.746;7.072;2023-07-31T01:39:37;7.43;;;3.08;;
33716;SDS011;20046;50.746;7.072;2023-07-31T01:42:02;6.07;;;2.88;;
33716;SDS011;20046;50.746;7.072;2023-07-31T01:44:28;10.68;;;3.20;;
33716;SDS011;20046;50.746;7.072;2023-07-31T01:46:54;6.43;;;3.60;;
33716;SDS011;20046;50.746;7.072;2023-07-31T01:49:19;7.40;;;2.85;;
33716;SDS011;20046;50.746;7.072;2023-07-31T01:51:45;7.50;;;3.42;;
33716;SDS011;20046;50.746;7.072;2023-07-31T01:54:11;7.70;;;3.08;;
33716;SDS011;20046;50.746;7.072;2023-07-31T01:56:36;5.65;;;2.80;;
33716;SDS011;20046;50.746;7.072;2023-07-31T01:59:02;5.13;;;3.38;;
33716;SDS011;20046;50.746;7.072;2023-07-31T02:01:27;8.98;;;3.78;;
33716;SDS011;20046;50.746;7.072;2023-07-31T02:03:53;6.53;;;3.50;;
33716;SDS011;20046;50.746;7.072;2023-07-31T02:06:19;5.55;;;3.33;;
33716;SDS011;20046;50.746;7.072;2023-07-31T02:08:44;7.32;;;4.07;;
33716;SDS011;20046;50.746;7.072;2023-07-31T02:11:10;11.13;;;5.95;;
33716;SDS011;20046;50.746;7.072;2023-07-31T02:13:35;13.38;;;4.55;;
33716;SDS011;20046;50.746;7.072;2023-07-31T02:16:01;8.70;;;3.70;;
33716;SDS011;20046;50.746;7.072;2023-07-31T02:18:27;7.43;;;4.10;;
33716;SDS011;20046;50.746;7.072;2023-07-31T02:20:53;10.95;;;3.05;;
33716;SDS011;20046;50.746;7.072;2023-07-31T02:23:18;7.65;;;3.60;;
33716;SDS011;20046;50.746;7.072;2023-07-31T02:25:44;7.35;;;3.50;;
33716;SDS011;20046;50.746;7.072;2023-07-31T02:28:10;12.60;;;3.88;;
33716;SDS011;20046;50.746;7.072;2023-07-31T02:30:36;8.35;;;3.80;;
33716;SDS011;20046;50.746;7.072;2023-07-31T02:33:01;10.48;;;4.10;;
33716;SDS011;20046;50.746;7.072;2023-07-31T02:35:27;10.40;;;4.03;;
33716;SDS011;20046;50.746;7.072;2023-07-31T02:37:53;9.05;;;3.83;;
33716;SDS011;20046;50.746;7.072;2023-07-31T02:40:18;7.20;;;3.95;;
33716;SDS011;20046;50.746;7.072;2023-07-31T02:42:44;9.20;;;4.07;;
33716;SDS011;20046;50.746;7.072;2023-07-31T02:45:09;10.15;;;3.45;;
33716;SDS011;20046;50.746;7.072;2023-07-31T02:47:35;7.90;;;3.75;;
33716;SDS011;20046;50.746;7.072;2023-07-31T02:50:03;8.88;;;3.58;;
33716;SDS011;20046;50.746;7.072;2023-07-31T02:52:29;9.85;;;3.95;;
33716;SDS011;20046;50.746;7.072;2023-07-31T02:54:55;13.43;;;3.85;;
33716;SDS011;20046;50.746;7.072;2023-07-31T02:57:20;6.57;;;3.17;;
33716;SDS011;20046;50.746;7.072;2023-07-31T02:59:46;7.82;;;3.90;;
33716;SDS011;20046;50.746;7.072;2023-07-31T03:02:12;9.95;;;3.72;;
33716;SDS011;20046;50.746;7.072;2023-07-31T03:04:38;8.75;;;4.05;;
33716;SDS011;20046;50.746;7.072;2023-07-31T03:07:03;8.00;;;3.53;;
33716;SDS011;20046;50.746;7.072;2023-07-31T03:09:29;8.18;;;3.72;;
33716;SDS011;20046;50.746;7.072;2023-07-31T03:11:55;8.43;;;3.75;;
33716;SDS011;20046;50.746;7.072;2023-07-31T03:14:21;9.90;;;3.65;;
33716;SDS011;20046;50.746;7.072;2023-07-31T03:16:46;10.82;;;4.13;;
33716;SDS011;20046;50.746;7.072;2023-07-31T03:19:12;12.20;;;3.78;;
33716;SDS011;20046;50.746;7.072;2023-07-31T03:21:38;10.52;;;3.95;;
33716;SDS011;20046;50.746;7.072;2023-07-31T03:24:03;11.70;;;4.18;;
33716;SDS011;20046;50.746;7.072;2023-07-31T03:26:31;7.50;;;3.50;;
33716;SDS011;20046;50.746;7.072;2023-07-31T03:28:56;9.45;;;4.22;;
33716;SDS011;20046;50.746;7.072;2023-07-31T03:31:22;11.02;;;3.67;;
33716;SDS011;20046;50.746;7.072;2023-07-31T03:33:48;6.40;;;3.03;;
33716;SDS011;20046;50.746;7.072;2023-07-31T03:36:13;13.25;;;3.72;;
33716;SDS011;20046;50.746;7.072;2023-07-31T03:38:39;11.18;;;4.53;;
33716;SDS011;20046;50.746;7.072;2023-07-31T03:41:04;10.40;;;3.40;;
33716;SDS011;20046;50.746;7.072;2023-07-31T03:43:31;11.18;;;4.18;;
33716;SDS011;20046;50.746;7.072;2023-07-31T03:45:58;10.85;;;3.55;;
33716;SDS011;20046;50.746;7.072;2023-07-31T03:48:25;10.77;;;4.28;;
33716;SDS011;20046;50.746;7.072;2023-07-31T03:50:50;10.57;;;4.25;;
33716;SDS011;20046;50.746;7.072;2023-07-31T03:53:16;13.07;;;4.22;;
33716;SDS011;20046;50.746;7.072;2023-07-31T03:55:42;7.32;;;3.63;;
33716;SDS011;20046;50.746;7.072;2023-07-31T03:58:07;7.65;;;3.95;;
33716;SDS011;20046;50.746;7.072;2023-07-31T04:00:33;14.27;;;4.10;;
33716;SDS011;20046;50.746;7.072;2023-07-31T04:02:59;11.80;;;4.07;;
33716;SDS011;20046;50.746;7.072;2023-07-31T04:05:24;9.02;;;3.55;;
33716;SDS011;20046;50.746;7.072;2023-07-31T04:07:50;10.63;;;3.85;;
33716;SDS011;20046;50.746;7.072;2023-07-31T04:10:16;11.40;;;4.03;;
33716;SDS011;20046;50.746;7.072;2023-07-31T04:12:42;10.70;;;4.15;;
33716;SDS011;20046;50.746;7.072;2023-07-31T04:15:07;10.88;;;3.88;;
33716;SDS011;20046;50.746;7.072;2023-07-31T04:17:33;8.23;;;3.47;;
33716;SDS011;20046;50.746;7.072;2023-07-31T04:19:59;8.65;;;3.55;;
33716;SDS011;20046;50.746;7.072;2023-07-31T04:22:24;12.13;;;4.10;;
33716;SDS011;20046;50.746;7.072;2023-07-31T04:24:50;9.77;;;3.13;;
33716;SDS011;20046;50.746;7.072;2023-07-31T04:27:16;11.13;;;4.65;;
33716;SDS011;20046;50.746;7.072;2023-07-31T04:29:41;9.30;;;4.50;;
33716;SDS011;20046;50.746;7.072;2023-07-31T04:32:09;10.90;;;4.15;;
33716;SDS011;20046;50.746;7.072;2023-07-31T04:34:35;11.05;;;3.95;;
33716;SDS011;20046;50.746;7.072;2023-07-31T04:37:00;11.93;;;4.35;;
33716;SDS011;20046;50.746;7.072;2023-07-31T04:39:26;13.32;;;4.57;;
33716;SDS011;20046;50.746;7.072;2023-07-31T04:41:51;12.20;;;4.75;;
33716;SDS011;20046;50.746;7.072;2023-07-31T04:44:17;12.07;;;4.82;;
33716;SDS011;20046;50.746;7.072;2023-07-31T04:46:42;9.32;;;3.83;;
33716;SDS011;20046;50.746;7.072;2023-07-31T04:49:08;8.75;;;3.88;;
33716;SDS011;20046;50.746;7.072;2023-07-31T04:51:33;10.50;;;4.43;;
33716;SDS011;20046;50.746;7.072;2023-07-31T04:53:59;8.85;;;3.75;;
33716;SDS011;20046;50.746;7.072;2023-07-31T04:56:24;9.65;;;3.80;;
33716;SDS011;20046;50.746;7.072;2023-07-31T04:58:50;9.13;;;4.35;;
33716;SDS011;20046;50.746;7.072;2023-07-31T05:01:16;6.72;;;3.53;;
33716;SDS011;20046;50.746;7.072;2023-07-31T05:03:41;9.13;;;3.97;;
33716;SDS011;20046;50.746;7.072;2023-07-31T05:06:07;8.40;;;3.95;;
33716;SDS011;20046;50.746;7.072;2023-07-31T05:08:32;7.25;;;3.95;;
33716;SDS011;20046;50.746;7.072;2023-07-31T05:10:58;10.23;;;4.25;;
33716;SDS011;20046;50.746;7.072;2023-07-31T05:13:24;7.65;;;3.72;;
33716;SDS011;20046;50.746;7.072;2023-07-31T05:15:49;7.95;;;3.65;;
33716;SDS011;20046;50.746;7.072;2023-07-31T05:18:15;9.50;;;4.03;;
33716;SDS011;20046;50.746;7.072;2023-07-31T05:20:40;10.00;;;4.57;;
33716;SDS011;20046;50.746;7.072;2023-07-31T05:23:06;7.03;;;3.80;;
33716;SDS011;20046;50.746;7.072;2023-07-31T05:25:32;8.73;;;3.85;;
33716;SDS011;20046;50.746;7.072;2023-07-31T05:27:57;9.00;;;4.15;;
33716;SDS011;20046;50.746;7.072;2023-07-31T05:30:23;13.63;;;4.07;;
33716;SDS011;20046;50.746;7.072;2023-07-31T05:32:49;10.05;;;4.10;;
33716;SDS011;20046;50.746;7.072;2023-07-31T05:35:14;7.40;;;4.18;;
33716;SDS011;20046;50.746;7.072;2023-07-31T05:37:40;7.90;;;3.47;;
33716;SDS011;20046;50.746;7.072;2023-07-31T05:40:06;9.30;;;3.53;;
33716;SDS011;20046;50.746;7.072;2023-07-31T05:42:32;7.32;;;3.95;;
33716;SDS011;20046;50.746;7.072;2023-07-31T05:44:57;13.00;;;3.60;;
33716;SDS011;20046;50.746;7.072;2023-07-31T05:47:23;9.52;;;3.60;;
33716;SDS011;20046;50.746;7.072;2023-07-31T05:49:49;8.27;;;4.22;;
33716;SDS011;20046;50.746;7.072;2023-07-31T05:52:17;6.47;;;3.72;;
33716;SDS011;20046;50.746;7.072;2023-07-31T05:54:43;8.23;;;3.30;;
33716;SDS011;20046;50.746;7.072;2023-07-31T05:57:09;6.78;;;3.55;;
33716;SDS011;20046;50.746;7.072;2023-07-31T05:59:34;10.77;;;3.60;;
33716;SDS011;20046;50.746;7.072;2023-07-31T06:02:00;7.22;;;3.45;;
33716;SDS011;20046;50.746;7.072;2023-07-31T06:04:25;8.80;;;3.33;;
33716;SDS011;20046;50.746;7.072;2023-07-31T06:06:51;6.10;;;3.22;;
33716;SDS011;20046;50.746;7.072;2023-07-31T06:09:17;8.75;;;3.80;;
33716;SDS011;20046;50.746;7.072;2023-07-31T06:11:42;8.85;;;3.55;;
33716;SDS011;20046;50.746;7.072;2023-07-31T06:14:08;11.07;;;3.78;;
33716;SDS011;20046;50.746;7.072;2023-07-31T06:16:33;10.25;;;3.17;;
33716;SDS011;20046;50.746;7.072;2023-07-31T06:18:59;9.00;;;3.58;;
33716;SDS011;20046;50.746;7.072;2023-07-31T06:21:26;7.00;;;3.60;;
33716;SDS011;20046;50.746;7.072;2023-07-31T06:23:51;6.97;;;3.83;;
33716;SDS011;20046;50.746;7.072;2023-07-31T06:26:17;7.32;;;3.88;;
33716;SDS011;20046;50.746;7.072;2023-07-31T06:28:43;11.02;;;4.38;;
33716;SDS011;20046;50.746;7.072;2023-07-31T06:31:08;7.22;;;3.67;;
33716;SDS011;20046;50.746;7.072;2023-07-31T06:33:34;10.43;;;4.38;;
33716;SDS011;20046;50.746;7.072;2023-07-31T06:36:00;11.30;;;4.13;;
33716;SDS011;20046;50.746;7.072;2023-07-31T06:38:26;13.52;;;4.57;;
33716;SDS011;20046;50.746;7.072;2023-07-31T06:40:52;10.45;;;4.10;;
33716;SDS011;20046;50.746;7.072;2023-07-31T06:43:18;10.00;;;4.50;;
33716;SDS011;20046;50.746;7.072;2023-07-31T06:45:44;11.30;;;4.68;;
33716;SDS011;20046;50.746;7.072;2023-07-31T06:48:10;11.90;;;5.15;;
33716;SDS011;20046;50.746;7.072;2023-07-31T06:50:36;13.82;;;4.45;;
33716;SDS011;20046;50.746;7.072;2023-07-31T06:53:02;13.95;;;4.72;;
33716;SDS011;20046;50.746;7.072;2023-07-31T06:55:27;14.02;;;5.43;;
33716;SDS011;20046;50.746;7.072;2023-07-31T06:57:53;15.80;;;5.30;;
33716;SDS011;20046;50.746;7.072;2023-07-31T07:00:20;8.40;;;4.22;;
33716;SDS011;20046;50.746;7.072;2023-07-31T07:02:46;15.05;;;5.07;;
33716;SDS011;20046;50.746;7.072;2023-07-31T07:05:13;12.93;;;5.20;;
33716;SDS011;20046;50.746;7.072;2023-07-31T07:07:39;12.75;;;4.82;;
33716;SDS011;20046;50.746;7.072;2023-07-31T07:10:05;11.65;;;4.70;;
33716;SDS011;20046;50.746;7.072;2023-07-31T07:12:32;10.70;;;4.97;;
33716;SDS011;20046;50.746;7.072;2023-07-31T07:14:58;9.90;;;4.60;;
33716;SDS011;20046;50.746;7.072;2023-07-31T07:17:27;13.15;;;4.60;;
33716;SDS011;20046;50.746;7.072;2023-07-31T07:19:56;12.23;;;5.00;;
33716;SDS011;20046;50.746;7.072;2023-07-31T07:22:22;10.20;;;4.10;;
33716;SDS011;20046;50.746;7.072;2023-07-31T07:24:48;8.52;;;5.18;;
33716;SDS011;20046;50.746;7.072;2023-07-31T07:27:13;9.95;;;4.90;;
33716;SDS011;20046;50.746;7.072;2023-07-31T07:29:39;9.77;;;4.55;;
33716;SDS011;20046;50.746;7.072;2023-07-31T07:32:05;11.73;;;4.70;;
33716;SDS011;20046;50.746;7.072;2023-07-31T07:34:31;9.90;;;4.47;;
33716;SDS011;20046;50.746;7.072;2023-07-31T07:36:56;10.00;;;4.00;;
33716;SDS011;20046;50.746;7.072;2023-07-31T07:39:22;9.75;;;4.30;;
33716;SDS011;20046;50.746;7.072;2023-07-31T07:41:47;10.52;;;4.25;;
33716;SDS011;20046;50.746;7.072;2023-07-31T07:44:13;17.85;;;5.50;;
33716;SDS011;20046;50.746;7.072;2023-07-31T07:46:39;10.38;;;4.55;;
33716;SDS011;20046;50.746;7.072;2023-07-31T07:49:05;10.65;;;4.57;;
33716;SDS011;20046;50.746;7.072;2023-07-31T07:51:31;12.25;;;5.15;;
33716;SDS011;20046;50.746;7.072;2023-07-31T07:53:59;13.65;;;5.30;;
33716;SDS011;20046;50.746;7.072;2023-07-31T07:56:25;10.13;;;4.80;;
33716;SDS011;20046;50.746;7.072;2023-07-31T07:58:52;13.63;;;4.43;;
33716;SDS011;20046;50.746;7.072;2023-07-31T08:01:18;13.18;;;5.63;;
33716;SDS011;20046;50.746;7.072;2023-07-31T08:03:44;10.18;;;4.53;;
33716;SDS011;20046;50.746;7.072;2023-07-31T08:06:10;13.00;;;5.10;;
33716;SDS011;20046;50.746;7.072;2023-07-31T08:08:36;10.48;;;5.60;;
33716;SDS011;20046;50.746;7.072;2023-07-31T08:11:02;12.35;;;5.22;;
33716;SDS011;20046;50.746;7.072;2023-07-31T08:13:27;12.15;;;4.85;;
33716;SDS011;20046;50.746;7.072;2023-07-31T08:15:53;11.80;;;5.07;;
33716;SDS011;20046;50.746;7.072;2023-07-31T08:18:19;11.63;;;4.70;;
33716;SDS011;20046;50.746;7.072;2023-07-31T08:20:45;12.52;;;5.28;;
33716;SDS011;20046;50.746;7.072;2023-07-31T08:23:10;11.02;;;4.25;;
33716;SDS011;20046;50.746;7.072;2023-07-31T08:25:36;11.10;;;5.35;;
33716;SDS011;20046;50.746;7.072;2023-07-31T08:28:02;11.20;;;5.10;;
33716;SDS011;20046;50.746;7.072;2023-07-31T08:30:29;7.50;;;4.72;;
33716;SDS011;20046;50.746;7.072;2023-07-31T08:32:55;14.52;;;5.00;;
33716;SDS011;20046;50.746;7.072;2023-07-31T08:35:20;11.90;;;4.77;;
33716;SDS011;20046;50.746;7.072;2023-07-31T08:37:46;9.90;;;5.75;;
33716;SDS011;20046;50.746;7.072;2023-07-31T08:40:11;13.60;;;5.40;;
33716;SDS011;20046;50.746;7.072;2023-07-31T08:42:44;15.13;;;5.88;;
33716;SDS011;20046;50.746;7.072;2023-07-31T08:45:13;12.55;;;4.95;;
33716;SDS011;20046;50.746;7.072;2023-07-31T08:47:42;12.52;;;4.10;;
33716;SDS011;20046;50.746;7.072;2023-07-31T08:50:10;12.13;;;5.30;;
33716;SDS011;20046;50.746;7.072;2023-07-31T08:52:37;11.90;;;4.43;;
33716;SDS011;20046;50.746;7.072;2023-07-31T08:55:04;11.40;;;4.57;;
33716;SDS011;20046;50.746;7.072;2023-07-31T08:57:30;17.25;;;5.00;;
33716;SDS011;20046;50.746;7.072;2023-07-31T08:59:58;12.70;;;5.95;;
33716;SDS011;20046;50.746;7.072;2023-07-31T09:02:24;12.43;;;4.00;;
33716;SDS011;20046;50.746;7.072;2023-07-31T09:04:53;14.77;;;4.72;;
33716;SDS011;20046;50.746;7.072;2023-07-31T09:07:19;11.07;;;4.10;;
33716;SDS011;20046;50.746;7.072;2023-07-31T09:09:46;10.18;;;4.45;;
33716;SDS011;20046;50.746;7.072;2023-07-31T09:12:11;9.32;;;4.35;;
33716;SDS011;20046;50.746;7.072;2023-07-31T09:14:37;17.40;;;4.82;;
33716;SDS011;20046;50.746;7.072;2023-07-31T09:17:04;12.10;;;4.47;;
33716;SDS011;20046;50.746;7.072;2023-07-31T09:19:33;16.05;;;4.80;;
33716;SDS011;20046;50.746;7.072;2023-07-31T09:22:01;11.75;;;5.40;;
33716;SDS011;20046;50.746;7.072;2023-07-31T09:24:29;8.98;;;4.60;;
33716;SDS011;20046;50.746;7.072;2023-07-31T09:26:57;14.88;;;5.03;;
33716;SDS011;20046;50.746;7.072;2023-07-31T09:29:24;12.68;;;4.47;;
33716;SDS011;20046;50.746;7.072;2023-07-31T09:31:51;12.32;;;4.10;;
33716;SDS011;20046;50.746;7.072;2023-07-31T09:34:18;14.27;;;6.70;;
33716;SDS011;20046;50.746;7.072;2023-07-31T09:36:45;9.00;;;4.47;;
33716;SDS011;20046;50.746;7.072;2023-07-31T09:39:15;10.82;;;4.32;;
33716;SDS011;20046;50.746;7.072;2023-07-31T09:41:43;13.95;;;4.00;;
33716;SDS011;20046;50.746;7.072;2023-07-31T09:44:10;10.75;;;3.88;;
33716;SDS011;20046;50.746;7.072;2023-07-31T09:46:41;9.70;;;4.17;;
33716;SDS011;20046;50.746;7.072;2023-07-31T09:49:11;9.15;;;3.80;;
33716;SDS011;20046;50.746;7.072;2023-07-31T09:51:38;13.77;;;4.88;;
33716;SDS011;20046;50.746;7.072;2023-07-31T09:54:09;10.25;;;4.00;;
33716;SDS011;20046;50.746;7.072;2023-07-31T09:56:38;9.13;;;3.88;;
33716;SDS011;20046;50.746;7.072;2023-07-31T09:59:17;7.10;;;2.92;;
33716;SDS011;20046;50.746;7.072;2023-07-31T10:01:44;7.18;;;3.50;;
33716;SDS011;20046;50.746;7.072;2023-07-31T10:04:11;5.93;;;3.15;;
33716;SDS011;20046;50.746;7.072;2023-07-31T10:06:38;6.82;;;2.50;;
33716;SDS011;20046;50.746;7.072;2023-07-31T10:09:06;3.80;;;2.20;;
33716;SDS011;20046;50.746;7.072;2023-07-31T10:11:43;4.40;;;2.10;;
33716;SDS011;20046;50.746;7.072;2023-07-31T10:14:21;3.85;;;2.25;;
33716;SDS011;20046;50.746;7.072;2023-07-31T10:16:48;6.18;;;2.65;;
33716;SDS011;20046;50.746;7.072;2023-07-31T10:19:15;4.25;;;2.20;;
33716;SDS011;20046;50.746;7.072;2023-07-31T10:21:42;4.05;;;2.28;;
33716;SDS011;20046;50.746;7.072;2023-07-31T10:24:08;4.78;;;2.60;;
33716;SDS011;20046;50.746;7.072;2023-07-31T10:26:34;7.90;;;2.70;;
33716;SDS011;20046;50.746;7.072;2023-07-31T10:29:02;6.95;;;2.60;;
33716;SDS011;20046;50.746;7.072;2023-07-31T10:31:29;5.43;;;2.35;;
33716;SDS011;20046;50.746;7.072;2023-07-31T10:33:55;5.88;;;2.50;;
33716;SDS011;20046;50.746;7.072;2023-07-31T10:36:24;5.38;;;2.92;;
33716;SDS011;20046;50.746;7.072;2023-07-31T10:38:49;5.57;;;2.42;;
33716;SDS011;20046;50.746;7.072;2023-07-31T10:41:16;6.00;;;2.50;;
33716;SDS011;20046;50.746;7.072;2023-07-31T10:43:41;4.53;;;2.70;;
33716;SDS011;20046;50.746;7.072;2023-07-31T10:46:08;6.53;;;2.13;;
33716;SDS011;20046;50.746;7.072;2023-07-31T10:48:36;6.68;;;2.03;;
33716;SDS011;20046;50.746;7.072;2023-07-31T10:51:06;5.55;;;2.20;;
33716;SDS011;20046;50.746;7.072;2023-07-31T10:53:33;4.60;;;1.65;;
33716;SDS011;20046;50.746;7.072;2023-07-31T10:55:59;3.08;;;2.00;;
33716;SDS011;20046;50.746;7.072;2023-07-31T10:58:26;3.15;;;2.00;;
33716;SDS011;20046;50.746;7.072;2023-07-31T11:00:55;6.10;;;1.73;;
33716;SDS011;20046;50.746;7.072;2023-07-31T11:03:26;3.25;;;2.00;;
33716;SDS011;20046;50.746;7.072;2023-07-31T11:06:06;4.03;;;1.95;;
33716;SDS011;20046;50.746;7.072;2023-07-31T11:08:33;3.42;;;2.00;;
33716;SDS011;20046;50.746;7.072;2023-07-31T11:13:28;2.65;;;1.58;;
33716;SDS011;20046;50.746;7.072;2023-07-31T11:15:54;3.45;;;1.70;;
33716;SDS011;20046;50.746;7.072;2023-07-31T11:18:20;3.25;;;2.08;;
33716;SDS011;20046;50.746;7.072;2023-07-31T11:20:46;3.13;;;1.70;;
33716;SDS011;20046;50.746;7.072;2023-07-31T11:23:12;3.47;;;1.80;;
33716;SDS011;20046;50.746;7.072;2023-07-31T11:25:38;3.03;;;1.35;;
33716;SDS011;20046;50.746;7.072;2023-07-31T11:28:13;4.43;;;2.28;;
33716;SDS011;20046;50.746;7.072;2023-07-31T11:30:40;3.28;;;1.45;;
33716;SDS011;20046;50.746;7.072;2023-07-31T11:33:07;1.88;;;1.50;;
33716;SDS011;20046;50.746;7.072;2023-07-31T11:35:34;2.40;;;1.35;;
33716;SDS011;20046;50.746;7.072;2023-07-31T11:38:01;3.58;;;1.40;;
33716;SDS011;20046;50.746;7.072;2023-07-31T11:40:28;4.43;;;1.67;;
33716;SDS011;20046;50.746;7.072;2023-07-31T11:42:58;4.90;;;1.52;;
33716;SDS011;20046;50.746;7.072;2023-07-31T11:45:28;3.08;;;1.38;;
33716;SDS011;20046;50.746;7.072;2023-07-31T11:47:55;2.08;;;1.30;;
33716;SDS011;20046;50.746;7.072;2023-07-31T11:50:21;4.63;;;1.50;;
33716;SDS011;20046;50.746;7.072;2023-07-31T11:52:50;3.15;;;1.60;;
33716;SDS011;20046;50.746;7.072;2023-07-31T11:55:17;3.90;;;1.40;;
33716;SDS011;20046;50.746;7.072;2023-07-31T11:57:43;5.57;;;1.77;;
33716;SDS011;20046;50.746;7.072;2023-07-31T12:00:10;6.75;;;2.78;;
33716;SDS011;20046;50.746;7.072;2023-07-31T12:02:38;2.25;;;1.60;;
33716;SDS011;20046;50.746;7.072;2023-07-31T12:05:10;3.65;;;1.15;;
33716;SDS011;20046;50.746;7.072;2023-07-31T12:10:23;1.83;;;1.30;;
33716;SDS011;20046;50.746;7.072;2023-07-31T12:12:59;3.55;;;1.40;;
33716;SDS011;20046;50.746;7.072;2023-07-31T12:15:33;2.50;;;1.40;;
33716;SDS011;20046;50.746;7.072;2023-07-31T12:18:00;1.90;;;1.50;;
33716;SDS011;20046;50.746;7.072;2023-07-31T12:20:29;3.58;;;1.63;;
33716;SDS011;20046;50.746;7.072;2023-07-31T12:22:55;4.57;;;1.90;;
33716;SDS011;20046;50.746;7.072;2023-07-31T12:25:22;3.28;;;1.88;;
33716;SDS011;20046;50.746;7.072;2023-07-31T12:27:47;2.28;;;1.85;;
33716;SDS011;20046;50.746;7.072;2023-07-31T12:30:32;5.25;;;2.35;;
33716;SDS011;20046;50.746;7.072;2023-07-31T12:33:05;4.25;;;2.67;;
33716;SDS011;20046;50.746;7.072;2023-07-31T12:35:35;4.95;;;3.10;;
33716;SDS011;20046;50.746;7.072;2023-07-31T12:38:02;5.75;;;2.78;;
33716;SDS011;20046;50.746;7.072;2023-07-31T12:40:28;4.78;;;2.88;;
33716;SDS011;20046;50.746;7.072;2023-07-31T12:42:53;8.88;;;3.45;;
33716;SDS011;20046;50.746;7.072;2023-07-31T12:45:19;6.25;;;2.97;;
33716;SDS011;20046;50.746;7.072;2023-07-31T12:47:46;6.03;;;3.72;;
33716;SDS011;20046;50.746;7.072;2023-07-31T12:50:11;5.47;;;3.45;;
33716;SDS011;20046;50.746;7.072;2023-07-31T12:52:37;6.88;;;3.10;;
33716;SDS011;20046;50.746;7.072;2023-07-31T12:55:03;5.60;;;3.70;;
33716;SDS011;20046;50.746;7.072;2023-07-31T12:57:29;7.47;;;3.15;;
33716;SDS011;20046;50.746;7.072;2023-07-31T12:59:55;4.82;;;3.20;;
33716;SDS011;20046;50.746;7.072;2023-07-31T13:02:21;5.40;;;3.42;;
33716;SDS011;20046;50.746;7.072;2023-07-31T13:04:46;5.60;;;3.42;;
33716;SDS011;20046;50.746;7.072;2023-07-31T13:07:12;5.72;;;3.45;;
33716;SDS011;20046;50.746;7.072;2023-07-31T13:09:37;4.78;;;3.20;;
33716;SDS011;20046;50.746;7.072;2023-07-31T13:12:03;5.05;;;3.15;;
33716;SDS011;20046;50.746;7.072;2023-07-31T13:14:29;5.50;;;3.58;;
33716;SDS011;20046;50.746;7.072;2023-07-31T13:16:55;6.32;;;3.60;;
33716;SDS011;20046;50.746;7.072;2023-07-31T13:19:20;7.70;;;3.72;;
33716;SDS011;20046;50.746;7.072;2023-07-31T13:21:46;5.88;;;3.70;;
33716;SDS011;20046;50.746;7.072;2023-07-31T13:24:11;6.03;;;3.30;;
33716;SDS011;20046;50.746;7.072;2023-07-31T13:26:38;5.47;;;3.30;;
33716;SDS011;20046;50.746;7.072;2023-07-31T13:29:03;7.60;;;2.75;;
33716;SDS011;20046;50.746;7.072;2023-07-31T13:31:29;4.57;;;3.42;;
33716;SDS011;20046;50.746;7.072;2023-07-31T13:33:54;5.18;;;3.20;;
33716;SDS011;20046;50.746;7.072;2023-07-31T13:36:20;4.80;;;2.90;;
33716;SDS011;20046;50.746;7.072;2023-07-31T13:38:45;4.30;;;2.58;;
33716;SDS011;20046;50.746;7.072;2023-07-31T13:41:11;4.88;;;2.97;;
33716;SDS011;20046;50.746;7.072;2023-07-31T13:43:36;5.88;;;3.10;;
33716;SDS011;20046;50.746;7.072;2023-07-31T13:46:02;3.38;;;2.45;;
33716;SDS011;20046;50.746;7.072;2023-07-31T13:48:31;3.15;;;2.00;;
33716;SDS011;20046;50.746;7.072;2023-07-31T13:50:59;5.40;;;2.15;;
33716;SDS011;20046;50.746;7.072;2023-07-31T13:53:25;4.60;;;2.40;;
33716;SDS011;20046;50.746;7.072;2023-07-31T13:55:50;2.72;;;2.22;;
33716;SDS011;20046;50.746;7.072;2023-07-31T13:58:16;6.80;;;2.25;;
33716;SDS011;20046;50.746;7.072;2023-07-31T14:00:42;5.05;;;1.92;;
33716;SDS011;20046;50.746;7.072;2023-07-31T14:03:08;4.22;;;2.15;;
33716;SDS011;20046;50.746;7.072;2023-07-31T14:05:34;5.50;;;2.22;;
33716;SDS011;20046;50.746;7.072;2023-07-31T14:08:00;3.25;;;2.25;;
33716;SDS011;20046;50.746;7.072;2023-07-31T14:10:25;5.70;;;2.72;;
33716;SDS011;20046;50.746;7.072;2023-07-31T14:12:51;4.47;;;2.25;;
33716;SDS011;20046;50.746;7.072;2023-07-31T14:15:17;3.78;;;2.75;;
33716;SDS011;20046;50.746;7.072;2023-07-31T14:17:42;3.85;;;2.53;;
33716;SDS011;20046;50.746;7.072;2023-07-31T14:20:08;3.03;;;2.20;;
33716;SDS011;20046;50.746;7.072;2023-07-31T14:22:34;3.35;;;2.30;;
33716;SDS011;20046;50.746;7.072;2023-07-31T14:25:00;4.35;;;2.47;;
33716;SDS011;20046;50.746;7.072;2023-07-31T14:27:26;7.95;;;2.63;;
33716;SDS011;20046;50.746;7.072;2023-07-31T14:29:52;5.35;;;2.03;;
33716;SDS011;20046;50.746;7.072;2023-07-31T14:32:18;5.07;;;2.25;;
33716;SDS011;20046;50.746;7.072;2023-07-31T14:34:43;2.55;;;2.00;;
33716;SDS011;20046;50.746;7.072;2023-07-31T14:37:09;5.35;;;2.10;;
33716;SDS011;20046;50.746;7.072;2023-07-31T14:39:34;3.55;;;2.05;;
33716;SDS011;20046;50.746;7.072;2023-07-31T14:42:00;2.67;;;2.03;;
33716;SDS011;20046;50.746;7.072;2023-07-31T14:44:25;3.28;;;2.17;;
33716;SDS011;20046;50.746;7.072;2023-07-31T14:46:51;3.63;;;2.20;;
33716;SDS011;20046;50.746;7.072;2023-07-31T14:49:17;6.20;;;2.35;;